This is the latest recevied weather packets stored in our database for station/object N0EDB-13. If no packets are shown the sender has not sent any weather packets the latest 10 day(s).
| Time | Temp. | Humidity | Pressure | Rain* | Wind** | Luminosity | Snow |
|---|---|---|---|---|---|---|---|
| 1777928081 | 18.33° C | 37% | 1469.2 hPa | 0 mm | - | 52 W/m² | - |
| 1777927780 | 18.33° C | 32% | 1468.4 hPa | 0 mm | - | 50 W/m² | - |
| 1777927479 | 18.89° C | 32% | 1467.2 hPa | 0 mm | - | 53 W/m² | - |
| 1777927178 | 18.89° C | 31% | 1466 hPa | 0 mm | - | 69 W/m² | - |
| 1777926878 | 19.44° C | 30% | 1464.7 hPa | 0 mm | - | 110 W/m² | - |
| 1777926578 | 19.44° C | 29% | 1463.7 hPa | 0 mm | - | 165 W/m² | - |
| 1777926277 | 20° C | 29% | 1463 hPa | 0 mm | - | 199 W/m² | - |
| 1777925976 | 20.56° C | 30% | 1461.7 hPa | 0 mm | - | 221 W/m² | - |
| 1777925674 | 21.11° C | 28% | 1459.6 hPa | 0 mm | - | 211 W/m² | - |
| 1777925374 | 22.22° C | 25% | 1457.6 hPa | 0 mm | - | 246 W/m² | - |
| 1777925074 | 22.22° C | 23% | 1457 hPa | 0 mm | - | 331 W/m² | - |
| 1777924773 | 22.22° C | 23% | 1456.6 hPa | 0 mm | - | 422 W/m² | - |
| 1777924472 | 22.78° C | 24% | 1456 hPa | 0 mm | - | 520 W/m² | - |
| 1777924172 | 22.78° C | 24% | 1455.2 hPa | 0 mm | - | 654 W/m² | - |
| 1777923871 | 23.33° C | 24% | 1454.7 hPa | 0 mm | - | 632 W/m² | - |
| 1777923570 | 23.89° C | 24% | 1453.2 hPa | 0 mm | - | 484 W/m² | - |
| 1777923270 | 23.89° C | 24% | 1452.3 hPa | 0 mm | - | 999 W/m² | - |
| 1777922969 | 23.89° C | 24% | 1452.7 hPa | 0 mm | - | 999 W/m² | - |
| 1777922669 | 23.33° C | 24% | 1453.5 hPa | 0 mm | - | 999 W/m² | - |
| 1777922369 | 23.33° C | 23% | 1454.1 hPa | 0 mm | - | 999 W/m² | - |
| 1777922068 | 23.33° C | 23% | 1454.1 hPa | 0 mm | - | 650 W/m² | - |
| 1777921768 | 23.33° C | 23% | 1453.7 hPa | 0 mm | - | 688 W/m² | - |
| 1777921468 | 23.33° C | 22% | 1454.1 hPa | 0 mm | - | 680 W/m² | - |
| 1777921167 | 23.33° C | 22% | 1454.3 hPa | 0 mm | - | 634 W/m² | - |
| 1777920867 | 23.33° C | 24% | 1454.3 hPa | 0 mm | - | 721 W/m² | - |
* Rain latest hour (hover to see other rain measurements)
** Current wind speed in m/s (hover to see current wind gust speed)